Kitty C — 2EIQ6 — position and weather

sailwx.info

Track history (hours):
 
Tides and Currents Weather Stations Pressure Air Temp Water Temp Dewpoint Dewpoint Depression Visibility Wind Speed Wind Dir Waves Ship Positions

Kitty C

Last reported at 2015-Jan-27 00:20 UTC. Time now 2015-Jan-28 16:11 UTC.
Position N 36°47' E 013°49'.

Length 106 m; draft 6.7 m.

Type: Cargo ship. MMSI: 235085464.

Date/timePositionNaut miles runAvg speedWind from/ knotsBaromVisibWave heightAir tempDewpointWater temp
2015-Jan-27 00:20N 36°47' E 013°49'8 9.4
2015-Jan-26 23:30N 36°44' E 013°58'9 9.2
2015-Jan-26 22:33N 36°42' E 014°08'9 9.3
2015-Jan-26 21:34N 36°39' E 014°20'10 9.5
2015-Jan-26 20:34N 36°37' E 014°31'  
2015-Jan-24 09:16N 37°48' E 024°22'144 8.2
2015-Jan-23 15:33N 40°12' E 024°29'5 5.2
2015-Jan-23 14:33N 40°17' E 024°28'5 5.2
2015-Jan-23 13:34N 40°22' E 024°27'6 5.6
2015-Jan-23 12:32N 40°28' E 024°26'6 5.9
2015-Jan-23 11:29N 40°34' E 024°25'6 7.1
2015-Jan-23 10:34N 40°41' E 024°25'9 8.5
2015-Jan-23 09:34N 40°49' E 024°27'8 8.1
2015-Jan-23 08:33N 40°57' E 024°29'0 0.2
2015-Jan-23 07:33N 40°57' E 024°29'0 0.0
2015-Jan-23 06:33N 40°57' E 024°29'0 0.0
2015-Jan-23 05:33N 40°57' E 024°29'0 0.0
2015-Jan-23 04:33N 40°57' E 024°29'0 0.0
2015-Jan-23 03:27N 40°57' E 024°29'0 0.0
2015-Jan-23 02:33N 40°57' E 024°29'0 0.0
2015-Jan-23 01:33N 40°57' E 024°29'0 0.0
2015-Jan-23 00:27N 40°57' E 024°29'0 0.0
2015-Jan-22 23:33N 40°57' E 024°29'0 0.0
2015-Jan-22 22:33N 40°57' E 024°29'0 0.0
2015-Jan-22 21:33N 40°57' E 024°29'0 0.0
2015-Jan-22 20:27N 40°57' E 024°29'0 0.0
2015-Jan-22 19:33N 40°57' E 024°29'0 0.0
2015-Jan-22 18:33N 40°57' E 024°29'0 0.0
2015-Jan-22 17:33N 40°57' E 024°29'0 0.0
2015-Jan-22 16:33N 40°57' E 024°29'0 0.0
2015-Jan-22 15:33N 40°57' E 024°29'0 0.0
2015-Jan-22 14:33N 40°57' E 024°29'0 0.0
2015-Jan-22 13:33N 40°57' E 024°29'0 0.0
2015-Jan-22 12:33N 40°57' E 024°29'0 0.0
2015-Jan-22 11:33N 40°57' E 024°29'0 0.0
2015-Jan-22 10:27N 40°57' E 024°29'0 0.0
2015-Jan-22 09:33N 40°57' E 024°29'0 0.0
2015-Jan-22 08:33N 40°57' E 024°29'0 0.0
2015-Jan-22 05:33N 40°57' E 024°29'0 0.0
2015-Jan-21 23:06N 40°57' E 024°29'0 0.0
2015-Jan-21 22:36N 40°57' E 024°29'0 0.0
2015-Jan-21 22:30N 40°57' E 024°29'0 0.0
2015-Jan-21 20:15N 40°57' E 024°29'0 0.0
2015-Jan-21 10:15N 40°57' E 024°29'0 0.0
2015-Jan-21 09:33N 40°57' E 024°29'0 0.0
2015-Jan-21 08:33N 40°57' E 024°29'0 0.0
2015-Jan-21 07:33N 40°57' E 024°29'0 0.2
2015-Jan-21 06:33N 40°57' E 024°29'1 1.1
2015-Jan-21 05:34N 40°56' E 024°29'0 0.1
2015-Jan-21 04:31N 40°56' E 024°29'0 0.0
2015-Jan-21 03:31N 40°56' E 024°29'0 0.0
2015-Jan-21 02:31N 40°56' E 024°29'0 0.0
2015-Jan-21 01:31N 40°56' E 024°29'0 0.0
2015-Jan-21 00:31N 40°56' E 024°29'0 0.0
2015-Jan-20 23:31N 40°56' E 024°29'0 0.0
2015-Jan-20 22:31N 40°56' E 024°29'0 0.0
2015-Jan-20 21:31N 40°56' E 024°29'0 0.0
2015-Jan-20 20:31N 40°56' E 024°29'0 0.0
2015-Jan-20 19:31N 40°56' E 024°29'0 0.1
2015-Jan-20 18:31N 40°56' E 024°29'0 0.1
2015-Jan-20 17:31N 40°56' E 024°29'0 0.0
2015-Jan-20 16:31N 40°56' E 024°29'0 0.1
2015-Jan-20 15:31N 40°56' E 024°29'0 0.0
2015-Jan-20 14:31N 40°56' E 024°29'0 0.0
2015-Jan-20 13:31N 40°56' E 024°29'0 0.0
2015-Jan-20 12:31N 40°56' E 024°29'0 0.0
2015-Jan-20 11:31N 40°56' E 024°29'0 0.0
2015-Jan-20 10:31N 40°56' E 024°29'0 0.0
2015-Jan-20 09:31N 40°56' E 024°29'1 0.7
2015-Jan-20 08:33N 40°55' E 024°29'9 8.6
2015-Jan-20 07:33N 40°47' E 024°25'9 9.1
2015-Jan-20 06:33N 40°38' E 024°24'9 8.7
2015-Jan-20 05:32N 40°29' E 024°28'8 8.3
2015-Jan-20 04:32N 40°21' E 024°31'9 8.3
2015-Jan-20 03:28N 40°13' E 024°35'8 8.5
2015-Jan-20 02:33N 40°06' E 024°38'9 8.2
2015-Jan-20 01:25N 39°57' E 024°42'8 8.4
2015-Jan-20 00:31N 39°50' E 024°45'9 8.4
2015-Jan-19 23:25N 39°41' E 024°48'116 9.1
2015-Jan-19 10:33N 37°51' E 025°37'9 9.1
2015-Jan-19 09:33N 37°42' E 025°40'9 9.1
2015-Jan-19 08:33N 37°33' E 025°44'9 9.5
2015-Jan-19 07:33N 37°25' E 025°50'87 8.7
2015-Jan-18 21:29N 36°01' E 026°19'  
Track history (hours):
 
Tides and Currents Weather Stations Pressure Air Temp Water Temp Dewpoint Dewpoint Depression Visibility Wind Speed Wind Dir Waves Ship Positions

Kitty C

Last reported at 2015-Jan-27 00:20 UTC. Time now 2015-Jan-28 16:11 UTC.
Position N 36°47' E 013°49'.

Length 106 m; draft 6.7 m.

Type: Cargo ship. MMSI: 235085464.

Date/timePositionNaut miles runAvg speedWind from/ knotsBaromVisibWave heightAir tempDewpointWater temp
2015-Jan-27 00:20N 36°47' E 013°49'8 9.4
2015-Jan-26 23:30N 36°44' E 013°58'9 9.2
2015-Jan-26 22:33N 36°42' E 014°08'9 9.3
2015-Jan-26 21:34N 36°39' E 014°20'10 9.5
2015-Jan-26 20:34N 36°37' E 014°31'  
2015-Jan-24 09:16N 37°48' E 024°22'144 8.2
2015-Jan-23 15:33N 40°12' E 024°29'5 5.2
2015-Jan-23 14:33N 40°17' E 024°28'5 5.2
2015-Jan-23 13:34N 40°22' E 024°27'6 5.6
2015-Jan-23 12:32N 40°28' E 024°26'6 5.9
2015-Jan-23 11:29N 40°34' E 024°25'6 7.1
2015-Jan-23 10:34N 40°41' E 024°25'9 8.5
2015-Jan-23 09:34N 40°49' E 024°27'8 8.1
2015-Jan-23 08:33N 40°57' E 024°29'0 0.2
2015-Jan-23 07:33N 40°57' E 024°29'0 0.0
2015-Jan-23 06:33N 40°57' E 024°29'0 0.0
2015-Jan-23 05:33N 40°57' E 024°29'0 0.0
2015-Jan-23 04:33N 40°57' E 024°29'0 0.0
2015-Jan-23 03:27N 40°57' E 024°29'0 0.0
2015-Jan-23 02:33N 40°57' E 024°29'0 0.0
2015-Jan-23 01:33N 40°57' E 024°29'0 0.0
2015-Jan-23 00:27N 40°57' E 024°29'0 0.0
2015-Jan-22 23:33N 40°57' E 024°29'0 0.0
2015-Jan-22 22:33N 40°57' E 024°29'0 0.0
2015-Jan-22 21:33N 40°57' E 024°29'0 0.0
2015-Jan-22 20:27N 40°57' E 024°29'0 0.0
2015-Jan-22 19:33N 40°57' E 024°29'0 0.0
2015-Jan-22 18:33N 40°57' E 024°29'0 0.0
2015-Jan-22 17:33N 40°57' E 024°29'0 0.0
2015-Jan-22 16:33N 40°57' E 024°29'0 0.0
2015-Jan-22 15:33N 40°57' E 024°29'0 0.0
2015-Jan-22 14:33N 40°57' E 024°29'0 0.0
2015-Jan-22 13:33N 40°57' E 024°29'0 0.0
2015-Jan-22 12:33N 40°57' E 024°29'0 0.0
2015-Jan-22 11:33N 40°57' E 024°29'0 0.0
2015-Jan-22 10:27N 40°57' E 024°29'0 0.0
2015-Jan-22 09:33N 40°57' E 024°29'0 0.0
2015-Jan-22 08:33N 40°57' E 024°29'0 0.0
2015-Jan-22 05:33N 40°57' E 024°29'0 0.0
2015-Jan-21 23:06N 40°57' E 024°29'0 0.0
2015-Jan-21 22:36N 40°57' E 024°29'0 0.0
2015-Jan-21 22:30N 40°57' E 024°29'0 0.0
2015-Jan-21 20:15N 40°57' E 024°29'0 0.0
2015-Jan-21 10:15N 40°57' E 024°29'0 0.0
2015-Jan-21 09:33N 40°57' E 024°29'0 0.0
2015-Jan-21 08:33N 40°57' E 024°29'0 0.0
2015-Jan-21 07:33N 40°57' E 024°29'0 0.2
2015-Jan-21 06:33N 40°57' E 024°29'1 1.1
2015-Jan-21 05:34N 40°56' E 024°29'0 0.1
2015-Jan-21 04:31N 40°56' E 024°29'0 0.0
2015-Jan-21 03:31N 40°56' E 024°29'0 0.0
2015-Jan-21 02:31N 40°56' E 024°29'0 0.0
2015-Jan-21 01:31N 40°56' E 024°29'0 0.0
2015-Jan-21 00:31N 40°56' E 024°29'0 0.0
2015-Jan-20 23:31N 40°56' E 024°29'0 0.0
2015-Jan-20 22:31N 40°56' E 024°29'0 0.0
2015-Jan-20 21:31N 40°56' E 024°29'0 0.0
2015-Jan-20 20:31N 40°56' E 024°29'0 0.0
2015-Jan-20 19:31N 40°56' E 024°29'0 0.1
2015-Jan-20 18:31N 40°56' E 024°29'0 0.1
2015-Jan-20 17:31N 40°56' E 024°29'0 0.0
2015-Jan-20 16:31N 40°56' E 024°29'0 0.1
2015-Jan-20 15:31N 40°56' E 024°29'0 0.0
2015-Jan-20 14:31N 40°56' E 024°29'0 0.0
2015-Jan-20 13:31N 40°56' E 024°29'0 0.0
2015-Jan-20 12:31N 40°56' E 024°29'0 0.0
2015-Jan-20 11:31N 40°56' E 024°29'0 0.0
2015-Jan-20 10:31N 40°56' E 024°29'0 0.0
2015-Jan-20 09:31N 40°56' E 024°29'1 0.7
2015-Jan-20 08:33N 40°55' E 024°29'9 8.6
2015-Jan-20 07:33N 40°47' E 024°25'9 9.1
2015-Jan-20 06:33N 40°38' E 024°24'9 8.7
2015-Jan-20 05:32N 40°29' E 024°28'8 8.3
2015-Jan-20 04:32N 40°21' E 024°31'9 8.3
2015-Jan-20 03:28N 40°13' E 024°35'8 8.5
2015-Jan-20 02:33N 40°06' E 024°38'9 8.2
2015-Jan-20 01:25N 39°57' E 024°42'8 8.4
2015-Jan-20 00:31N 39°50' E 024°45'9 8.4
2015-Jan-19 23:25N 39°41' E 024°48'116 9.1
2015-Jan-19 10:33N 37°51' E 025°37'9 9.1
2015-Jan-19 09:33N 37°42' E 025°40'9 9.1
2015-Jan-19 08:33N 37°33' E 025°44'9 9.5
2015-Jan-19 07:33N 37°25' E 025°50'87 8.7
2015-Jan-18 21:29N 36°01' E 026°19'  

Dump ship's entire track history